Flight Track Log - Related Links

Times and Time Zones

All times are in EDT time to prevent confusion due to time zone crossing. See the BER6299 flight status page for this flight to view local times or setup timezone preferences in your user account.

Time Position Orientation Groundspeed Altitude Reporting Facility
EDT Latitude Longitude Course Direction KTS MPH feet Rate Location/Type
Wed 02:47:00 AM 52.9171 10.2571 167° South  Level Estimated
Wed 02:48:00 AM 52.8279 10.2900 167° South  Level Estimated
Wed 02:49:00 AM 52.7386 10.3229 167° South  Level Estimated
Wed 02:50:00 AM 52.6494 10.3556 167° South  Level Estimated
Wed 02:51:00 AM 52.5602 10.3882 167° South  Level Estimated
Wed 02:52:00 AM 52.4709 10.4206 168° South  Level Estimated
Wed 02:53:00 AM 52.3817 10.4530 168° South  Level Estimated
Wed 02:54:00 AM 52.2924 10.4852 168° South  Level Estimated
Wed 02:55:00 AM 52.2032 10.5172 168° South  Level Estimated
Wed 02:56:00 AM 52.1139 10.5491 168° South  Level Estimated
Wed 02:57:00 AM 52.0246 10.5809 168° South  Level Estimated
Wed 02:58:00 AM 51.9353 10.6126 168° South  Level Estimated
Wed 02:59:00 AM 51.8460 10.6442 168° South  Level Estimated
Wed 03:00:00 AM 51.7567 10.6756 168° South  Level Estimated
Wed 03:01:00 AM 51.6674 10.7069 168° South  Level Estimated
Wed 03:02:00 AM 51.5780 10.7381 168° South  Level Estimated
Wed 03:03:00 AM 51.4887 10.7691 168° South  Level Estimated
Wed 03:04:00 AM 51.3993 10.8000 168° South  Level Estimated
Wed 03:05:00 AM 51.3100 10.8308 168° South  Level Estimated
Wed 03:06:00 AM 51.2206 10.8615 168° South  Level Estimated
Wed 03:07:00 AM 51.1312 10.8921 168° South  Level Estimated
Wed 03:08:00 AM 51.0419 10.9226 168° South  Level Estimated
Wed 03:09:00 AM 50.9525 10.9529 168° South  Level Estimated
Wed 03:10:00 AM 50.8631 10.9831 168° South  Level Estimated
Wed 03:11:00 AM 50.7737 11.0132 168° South  Level Estimated
Wed 03:12:00 AM 50.6843 11.0432 168° South  Level Estimated
Wed 03:13:00 AM 50.5949 11.0731 168° South  Level Estimated
Wed 03:14:00 AM 50.5054 11.1028 168° South  Level Estimated
Wed 03:15:00 AM 50.4160 11.1325 168° South  Level Estimated
Wed 03:16:00 AM 50.3266 11.1620 168° South  Level Estimated
Wed 03:17:00 AM 50.2371 11.1915 168° South  Level Estimated
Wed 03:18:00 AM 50.1477 11.2208 168° South  Level Estimated
Wed 03:19:00 AM 50.0582 11.2500 168° South  Level Estimated
Wed 03:20:00 AM 49.9687 11.2791 168° South  Level Estimated
Wed 03:21:00 AM 49.8793 11.3081 168° South  Level Estimated
Wed 03:22:00 AM 49.7898 11.3370 168° South  Level Estimated
Wed 03:23:00 AM 49.7003 11.3657 168° South  Level Estimated
Wed 03:24:00 AM 49.6108 11.3944 168° South  Level Estimated
Wed 03:25:00 AM 49.5213 11.4230 168° South  Level Estimated
Wed 03:26:00 AM 49.4318 11.4514 168° South  Level Estimated
Wed 03:27:00 AM 49.3423 11.4798 168° South  Level Estimated
Wed 03:28:00 AM 49.2527 11.5080 168° South  Level Estimated
Wed 03:29:00 AM 49.1632 11.5362 168° South  Level Estimated
Wed 03:30:00 AM 49.0737 11.5642 168° South  Level Estimated
Wed 03:31:00 AM 48.9841 11.5922 168° South  Level Estimated
Wed 03:32:00 AM 48.8946 11.6201 168° South  Level Estimated
Wed 03:33:00 AM 48.8050 11.6478 168° South  Level Estimated
Wed 03:34:00 AM 48.7154 11.6755 168° South  Level Estimated
Wed 03:35:00 AM 48.6259 11.7030 169° South  Level Estimated
Wed 03:36:00 AM 48.5363 11.7305 169° South  Level Estimated
Wed 03:37:00 AM 48.4467 11.7578 169° South  Level Estimated
Wed 03:38:00 AM 48.3571 11.7851 169° South  Level Estimated
Wed 03:39:00 AM 48.3538 11.7861 169° South  Level Estimated
Wed 03:40:00 AM 48.3538 11.7861 318° Northwest  Level Estimated
Wed 03:41:00 AM 48.3538 11.7861 318° Northwest  Level Estimated
Wed 03:42:00 AM 48.3538 11.7861 318° Northwest  Level Estimated
Wed 03:43:00 AM 48.3538 11.7861 318° Northwest  Level Estimated
Wed 03:44:00 AM 48.3538 11.7861 318° Northwest  Level Estimated
Wed 03:45:00 AM 48.3538 11.7861 318° Northwest  Level Estimated

Login

Don't have an account? Register now (free) for customized features, flight alerts, and more!